sensor_id;sensor_type;location;lat;lon;timestamp;pressure;altitude;pressure_sealevel;temperature
66473;BMP280;53291;51.680;8.344;2022-10-31T00:00:18;101249.41;;;15.17
66473;BMP280;53291;51.680;8.344;2022-10-31T00:02:43;101251.19;;;15.16
66473;BMP280;53291;51.680;8.344;2022-10-31T00:05:09;101247.94;;;15.14
66473;BMP280;53291;51.680;8.344;2022-10-31T00:07:35;101253.38;;;15.11
66473;BMP280;53291;51.680;8.344;2022-10-31T00:10:00;101262.88;;;15.10
66473;BMP280;53291;51.680;8.344;2022-10-31T00:12:26;101260.31;;;15.10
66473;BMP280;53291;51.680;8.344;2022-10-31T00:14:51;101247.41;;;15.10
66473;BMP280;53291;51.680;8.344;2022-10-31T00:17:17;101260.16;;;15.12
66473;BMP280;53291;51.680;8.344;2022-10-31T00:19:42;101256.25;;;15.08
66473;BMP280;53291;51.680;8.344;2022-10-31T00:22:07;101258.19;;;15.06
66473;BMP280;53291;51.680;8.344;2022-10-31T00:24:33;101258.31;;;15.04
66473;BMP280;53291;51.680;8.344;2022-10-31T00:26:58;101267.00;;;15.03
66473;BMP280;53291;51.680;8.344;2022-10-31T00:29:23;101262.13;;;15.00
66473;BMP280;53291;51.680;8.344;2022-10-31T00:31:49;101263.91;;;15.00
66473;BMP280;53291;51.680;8.344;2022-10-31T00:34:14;101272.16;;;15.03
66473;BMP280;53291;51.680;8.344;2022-10-31T00:36:40;101274.28;;;15.08
66473;BMP280;53291;51.680;8.344;2022-10-31T00:39:05;101271.13;;;15.14
66473;BMP280;53291;51.680;8.344;2022-10-31T00:41:30;101275.19;;;15.17
66473;BMP280;53291;51.680;8.344;2022-10-31T00:43:56;101274.91;;;15.20
66473;BMP280;53291;51.680;8.344;2022-10-31T00:46:21;101274.13;;;15.19
66473;BMP280;53291;51.680;8.344;2022-10-31T00:48:46;101270.34;;;15.13
66473;BMP280;53291;51.680;8.344;2022-10-31T00:51:12;101280.91;;;15.10
66473;BMP280;53291;51.680;8.344;2022-10-31T00:53:37;101276.34;;;15.04
66473;BMP280;53291;51.680;8.344;2022-10-31T00:56:02;101276.66;;;15.01
66473;BMP280;53291;51.680;8.344;2022-10-31T00:58:28;101273.66;;;14.96
66473;BMP280;53291;51.680;8.344;2022-10-31T01:00:53;101274.63;;;14.95
66473;BMP280;53291;51.680;8.344;2022-10-31T01:03:23;101273.66;;;14.96
66473;BMP280;53291;51.680;8.344;2022-10-31T01:06:04;101274.63;;;14.95
66473;BMP280;53291;51.680;8.344;2022-10-31T01:08:29;101276.22;;;14.96
66473;BMP280;53291;51.680;8.344;2022-10-31T01:11:14;101277.22;;;14.95
66473;BMP280;53291;51.680;8.344;2022-10-31T01:13:41;101283.97;;;14.96
66473;BMP280;53291;51.680;8.344;2022-10-31T01:16:08;101280.19;;;15.00
66473;BMP280;53291;51.680;8.344;2022-10-31T01:18:35;101281.50;;;15.04
66473;BMP280;53291;51.680;8.344;2022-10-31T01:21:05;101286.66;;;15.04
66473;BMP280;53291;51.680;8.344;2022-10-31T01:23:31;101289.59;;;15.09
66473;BMP280;53291;51.680;8.344;2022-10-31T01:26:09;101282.69;;;15.10
66473;BMP280;53291;51.680;8.344;2022-10-31T01:28:36;101284.16;;;15.12
66473;BMP280;53291;51.680;8.344;2022-10-31T01:31:07;101275.56;;;15.22
66473;BMP280;53291;51.680;8.344;2022-10-31T01:33:33;101280.47;;;15.25
66473;BMP280;53291;51.680;8.344;2022-10-31T01:35:58;101277.59;;;15.28
66473;BMP280;53291;51.680;8.344;2022-10-31T01:38:24;101286.06;;;15.38
66473;BMP280;53291;51.680;8.344;2022-10-31T01:40:50;101275.16;;;15.44
66473;BMP280;53291;51.680;8.344;2022-10-31T01:43:15;101273.28;;;15.46
66473;BMP280;53291;51.680;8.344;2022-10-31T01:45:44;101267.28;;;15.45
66473;BMP280;53291;51.680;8.344;2022-10-31T01:48:15;101259.44;;;15.47
66473;BMP280;53291;51.680;8.344;2022-10-31T01:50:43;101260.44;;;15.54
66473;BMP280;53291;51.680;8.344;2022-10-31T01:53:10;101255.63;;;15.59
66473;BMP280;53291;51.680;8.344;2022-10-31T01:55:39;101251.00;;;15.63
66473;BMP280;53291;51.680;8.344;2022-10-31T01:58:12;101264.72;;;15.63
66473;BMP280;53291;51.680;8.344;2022-10-31T02:00:39;101257.13;;;15.62
66473;BMP280;53291;51.680;8.344;2022-10-31T02:03:06;101259.56;;;15.63
66473;BMP280;53291;51.680;8.344;2022-10-31T02:05:32;101267.31;;;15.63
66473;BMP280;53291;51.680;8.344;2022-10-31T02:08:12;101253.28;;;15.66
66473;BMP280;53291;51.680;8.344;2022-10-31T02:10:39;101250.56;;;15.67
66473;BMP280;53291;51.680;8.344;2022-10-31T02:13:07;101256.38;;;15.69
66473;BMP280;53291;51.680;8.344;2022-10-31T02:15:32;101254.91;;;15.67
66473;BMP280;53291;51.680;8.344;2022-10-31T02:17:58;101256.81;;;15.65
66473;BMP280;53291;51.680;8.344;2022-10-31T02:20:26;101257.50;;;15.67
66473;BMP280;53291;51.680;8.344;2022-10-31T02:28:51;101254.34;;;15.55
66473;BMP280;53291;51.680;8.344;2022-10-31T02:33:58;101266.03;;;15.49
66473;BMP280;53291;51.680;8.344;2022-10-31T02:44:38;101289.53;;;15.64
66473;BMP280;53291;51.680;8.344;2022-10-31T02:47:14;101297.94;;;15.66
66473;BMP280;53291;51.680;8.344;2022-10-31T02:49:48;101290.88;;;15.68
66473;BMP280;53291;51.680;8.344;2022-10-31T02:52:20;101298.91;;;15.65
66473;BMP280;53291;51.680;8.344;2022-10-31T02:54:47;101295.06;;;15.69
66473;BMP280;53291;51.680;8.344;2022-10-31T02:57:14;101291.69;;;15.69
66473;BMP280;53291;51.680;8.344;2022-10-31T02:59:45;101282.47;;;15.66
66473;BMP280;53291;51.680;8.344;2022-10-31T03:10:55;101262.88;;;15.55
66473;BMP280;53291;51.680;8.344;2022-10-31T03:15:51;101271.50;;;15.46
66473;BMP280;53291;51.680;8.344;2022-10-31T03:18:56;101261.22;;;15.37
66473;BMP280;53291;51.680;8.344;2022-10-31T03:21:52;101255.66;;;15.41
66473;BMP280;53291;51.680;8.344;2022-10-31T03:24:20;101256.38;;;15.34
66473;BMP280;53291;51.680;8.344;2022-10-31T03:26:51;101254.38;;;15.28
66473;BMP280;53291;51.680;8.344;2022-10-31T03:29:20;101260.63;;;15.25
66473;BMP280;53291;51.680;8.344;2022-10-31T03:32:04;101259.16;;;15.23
66473;BMP280;53291;51.680;8.344;2022-10-31T03:34:31;101259.31;;;15.21
66473;BMP280;53291;51.680;8.344;2022-10-31T03:37:00;101266.91;;;15.23
66473;BMP280;53291;51.680;8.344;2022-10-31T03:39:27;101260.69;;;15.15
66473;BMP280;53291;51.680;8.344;2022-10-31T03:41:59;101264.22;;;15.14
66473;BMP280;53291;51.680;8.344;2022-10-31T03:44:26;101266.56;;;15.08
66473;BMP280;53291;51.680;8.344;2022-10-31T03:46:53;101272.97;;;15.04
66473;BMP280;53291;51.680;8.344;2022-10-31T03:49:19;101276.66;;;15.01
66473;BMP280;53291;51.680;8.344;2022-10-31T03:52:23;101281.56;;;14.95
66473;BMP280;53291;51.680;8.344;2022-10-31T03:54:59;101284.56;;;14.90
66473;BMP280;53291;51.680;8.344;2022-10-31T03:57:40;101281.28;;;14.88
66473;BMP280;53291;51.680;8.344;2022-10-31T04:00:11;101286.44;;;14.88
66473;BMP280;53291;51.680;8.344;2022-10-31T04:02:40;101286.44;;;14.88
66473;BMP280;53291;51.680;8.344;2022-10-31T04:05:08;101289.41;;;14.93
66473;BMP280;53291;51.680;8.344;2022-10-31T04:07:39;101296.19;;;14.94
66473;BMP280;53291;51.680;8.344;2022-10-31T04:10:08;101294.94;;;14.98
66473;BMP280;53291;51.680;8.344;2022-10-31T04:12:35;101298.88;;;15.02
66473;BMP280;53291;51.680;8.344;2022-10-31T04:15:05;101299.78;;;15.11
66473;BMP280;53291;51.680;8.344;2022-10-31T04:17:34;101301.78;;;15.17
66473;BMP280;53291;51.680;8.344;2022-10-31T04:20:00;101294.56;;;15.21
66473;BMP280;53291;51.680;8.344;2022-10-31T04:22:26;101296.72;;;15.25
66473;BMP280;53291;51.680;8.344;2022-10-31T04:24:51;101285.63;;;15.25
66473;BMP280;53291;51.680;8.344;2022-10-31T04:27:17;101288.19;;;15.25
66473;BMP280;53291;51.680;8.344;2022-10-31T04:29:43;101284.00;;;15.24
66473;BMP280;53291;51.680;8.344;2022-10-31T04:32:08;101289.97;;;15.14
66473;BMP280;53291;51.680;8.344;2022-10-31T04:34:34;101284.44;;;15.09
66473;BMP280;53291;51.680;8.344;2022-10-31T04:36:59;101291.81;;;15.04
66473;BMP280;53291;51.680;8.344;2022-10-31T04:39:24;101286.69;;;14.95
66473;BMP280;53291;51.680;8.344;2022-10-31T04:41:49;101286.44;;;14.88
66473;BMP280;53291;51.680;8.344;2022-10-31T04:44:15;101289.84;;;14.89
66473;BMP280;53291;51.680;8.344;2022-10-31T04:46:41;101288.06;;;14.89
66473;BMP280;53291;51.680;8.344;2022-10-31T04:49:06;101286.75;;;14.85
66473;BMP280;53291;51.680;8.344;2022-10-31T04:51:31;101282.25;;;14.87
66473;BMP280;53291;51.680;8.344;2022-10-31T04:53:57;101286.97;;;14.92
66473;BMP280;53291;51.680;8.344;2022-10-31T04:56:22;101283.44;;;14.93
66473;BMP280;53291;51.680;8.344;2022-10-31T04:58:47;101283.88;;;14.88
66473;BMP280;53291;51.680;8.344;2022-10-31T05:01:13;101272.88;;;14.86
66473;BMP280;53291;51.680;8.344;2022-10-31T05:03:38;101280.59;;;14.86
66473;BMP280;53291;51.680;8.344;2022-10-31T05:06:05;101280.34;;;14.89
66473;BMP280;53291;51.680;8.344;2022-10-31T05:08:30;101279.09;;;14.93
66473;BMP280;53291;51.680;8.344;2022-10-31T05:10:59;101262.56;;;14.86
66473;BMP280;53291;51.680;8.344;2022-10-31T05:13:24;101262.91;;;14.83
66473;BMP280;53291;51.680;8.344;2022-10-31T05:15:50;101265.75;;;14.80
66473;BMP280;53291;51.680;8.344;2022-10-31T05:18:15;101261.97;;;14.75
66473;BMP280;53291;51.680;8.344;2022-10-31T05:20:40;101264.00;;;14.71
66473;BMP280;53291;51.680;8.344;2022-10-31T05:23:06;101266.16;;;14.76
66473;BMP280;53291;51.680;8.344;2022-10-31T05:25:31;101266.97;;;14.76
66473;BMP280;53291;51.680;8.344;2022-10-31T05:27:56;101259.41;;;14.65
66473;BMP280;53291;51.680;8.344;2022-10-31T05:30:25;101256.47;;;14.60
66473;BMP280;53291;51.680;8.344;2022-10-31T05:32:51;101254.97;;;14.57
66473;BMP280;53291;51.680;8.344;2022-10-31T05:35:25;101253.09;;;14.50
66473;BMP280;53291;51.680;8.344;2022-10-31T05:37:51;101258.78;;;14.44
66473;BMP280;53291;51.680;8.344;2022-10-31T05:40:18;101259.41;;;14.38
66473;BMP280;53291;51.680;8.344;2022-10-31T05:42:43;101259.94;;;14.32
66473;BMP280;53291;51.680;8.344;2022-10-31T05:45:11;101250.56;;;14.21
66473;BMP280;53291;51.680;8.344;2022-10-31T05:47:38;101255.19;;;14.17
66473;BMP280;53291;51.680;8.344;2022-10-31T05:50:04;101259.28;;;14.10
66473;BMP280;53291;51.680;8.344;2022-10-31T05:52:29;101262.25;;;14.06
66473;BMP280;53291;51.680;8.344;2022-10-31T05:54:55;101253.84;;;14.04
66473;BMP280;53291;51.680;8.344;2022-10-31T05:57:20;101261.31;;;13.97
66473;BMP280;53291;51.680;8.344;2022-10-31T05:59:45;101254.00;;;13.93
66473;BMP280;53291;51.680;8.344;2022-10-31T06:02:11;101251.56;;;13.91
66473;BMP280;53291;51.680;8.344;2022-10-31T06:04:36;101257.50;;;13.92
66473;BMP280;53291;51.680;8.344;2022-10-31T06:07:01;101252.78;;;13.87
66473;BMP280;53291;51.680;8.344;2022-10-31T06:09:27;101247.66;;;13.87
66473;BMP280;53291;51.680;8.344;2022-10-31T06:11:52;101253.63;;;13.88
66473;BMP280;53291;51.680;8.344;2022-10-31T06:14:17;101252.50;;;13.80
66473;BMP280;53291;51.680;8.344;2022-10-31T06:16:43;101254.00;;;13.83
66473;BMP280;53291;51.680;8.344;2022-10-31T06:19:08;101251.28;;;13.85
66473;BMP280;53291;51.680;8.344;2022-10-31T06:21:33;101247.91;;;13.84
66473;BMP280;53291;51.680;8.344;2022-10-31T06:23:59;101248.72;;;13.85
66473;BMP280;53291;51.680;8.344;2022-10-31T06:26:24;101248.59;;;13.86
66473;BMP280;53291;51.680;8.344;2022-10-31T06:28:49;101257.66;;;13.90
66473;BMP280;53291;51.680;8.344;2022-10-31T06:31:14;101260.38;;;13.89
66473;BMP280;53291;51.680;8.344;2022-10-31T06:33:43;101255.63;;;13.94
66473;BMP280;53291;51.680;8.344;2022-10-31T06:36:09;101273.50;;;13.95
66473;BMP280;53291;51.680;8.344;2022-10-31T06:38:34;101260.63;;;13.95
66473;BMP280;53291;51.680;8.344;2022-10-31T06:41:04;101265.50;;;13.98
66473;BMP280;53291;51.680;8.344;2022-10-31T06:43:30;101269.84;;;14.07
66473;BMP280;53291;51.680;8.344;2022-10-31T06:45:55;101274.47;;;14.13
66473;BMP280;53291;51.680;8.344;2022-10-31T06:48:20;101272.38;;;14.17
66473;BMP280;53291;51.680;8.344;2022-10-31T06:50:46;101271.44;;;14.18
66473;BMP280;53291;51.680;8.344;2022-10-31T06:53:11;101274.16;;;14.16
66473;BMP280;53291;51.680;8.344;2022-10-31T06:55:38;101279.16;;;14.27
66473;BMP280;53291;51.680;8.344;2022-10-31T06:58:03;101278.22;;;14.19
66473;BMP280;53291;51.680;8.344;2022-10-31T07:00:29;101272.53;;;14.15
66473;BMP280;53291;51.680;8.344;2022-10-31T07:02:56;101272.84;;;14.12
66473;BMP280;53291;51.680;8.344;2022-10-31T07:05:22;101278.34;;;14.17
66473;BMP280;53291;51.680;8.344;2022-10-31T07:07:47;101275.25;;;14.23
66473;BMP280;53291;51.680;8.344;2022-10-31T07:10:16;101266.84;;;14.21
66473;BMP280;53291;51.680;8.344;2022-10-31T07:12:41;101272.94;;;14.30
66473;BMP280;53291;51.680;8.344;2022-10-31T07:15:07;101268.44;;;14.32
66473;BMP280;53291;51.680;8.344;2022-10-31T07:17:32;101264.41;;;14.30
66473;BMP280;53291;51.680;8.344;2022-10-31T07:19:57;101265.22;;;14.30
66473;BMP280;53291;51.680;8.344;2022-10-31T07:22:23;101267.91;;;14.38
66473;BMP280;53291;51.680;8.344;2022-10-31T07:24:48;101275.31;;;14.51
66473;BMP280;53291;51.680;8.344;2022-10-31T07:27:13;101278.28;;;14.56
66473;BMP280;53291;51.680;8.344;2022-10-31T07:29:39;101272.00;;;14.68
66473;BMP280;53291;51.680;8.344;2022-10-31T07:32:04;101269.84;;;14.73
66473;BMP280;53291;51.680;8.344;2022-10-31T07:34:29;101267.91;;;14.85
66473;BMP280;53291;51.680;8.344;2022-10-31T07:36:55;101264.72;;;15.00
66473;BMP280;53291;51.680;8.344;2022-10-31T07:39:20;101267.34;;;15.18
66473;BMP280;53291;51.680;8.344;2022-10-31T07:41:45;101258.88;;;15.26
66473;BMP280;53291;51.680;8.344;2022-10-31T07:44:10;101268.81;;;15.38
66473;BMP280;53291;51.680;8.344;2022-10-31T07:46:36;101264.59;;;15.47
66473;BMP280;53291;51.680;8.344;2022-10-31T07:49:01;101275.19;;;15.62
66473;BMP280;53291;51.680;8.344;2022-10-31T07:51:27;101270.53;;;15.65
66473;BMP280;53291;51.680;8.344;2022-10-31T07:53:52;101267.75;;;15.76
66473;BMP280;53291;51.680;8.344;2022-10-31T07:56:17;101263.44;;;16.02
66473;BMP280;53291;51.680;8.344;2022-10-31T07:58:43;101270.00;;;15.97
66473;BMP280;53291;51.680;8.344;2022-10-31T08:01:08;101266.16;;;16.27
66473;BMP280;53291;51.680;8.344;2022-10-31T08:03:33;101276.16;;;16.56
66473;BMP280;53291;51.680;8.344;2022-10-31T08:05:58;101280.44;;;16.65
66473;BMP280;53291;51.680;8.344;2022-10-31T08:08:24;101274.81;;;16.77
66473;BMP280;53291;51.680;8.344;2022-10-31T08:10:49;101268.91;;;16.85
66473;BMP280;53291;51.680;8.344;2022-10-31T08:13:15;101274.75;;;17.03
66473;BMP280;53291;51.680;8.344;2022-10-31T08:15:40;101271.22;;;17.12
66473;BMP280;53291;51.680;8.344;2022-10-31T08:18:12;101269.13;;;17.16
66473;BMP280;53291;51.680;8.344;2022-10-31T08:20:38;101269.13;;;17.16
66473;BMP280;53291;51.680;8.344;2022-10-31T08:23:04;101269.59;;;17.11
66473;BMP280;53291;51.680;8.344;2022-10-31T08:25:31;101266.06;;;17.12
66473;BMP280;53291;51.680;8.344;2022-10-31T08:27:57;101266.25;;;17.19
66473;BMP280;53291;51.680;8.344;2022-10-31T08:30:27;101262.00;;;17.26
66473;BMP280;53291;51.680;8.344;2022-10-31T08:33:04;101259.63;;;17.40
66473;BMP280;53291;51.680;8.344;2022-10-31T08:35:32;101248.47;;;17.48
66473;BMP280;53291;51.680;8.344;2022-10-31T08:37:58;101258.81;;;17.56
66473;BMP280;53291;51.680;8.344;2022-10-31T08:40:24;101257.22;;;17.39
66473;BMP280;53291;51.680;8.344;2022-10-31T08:42:57;101251.25;;;17.63
66473;BMP280;53291;51.680;8.344;2022-10-31T08:45:23;101247.50;;;17.65
66473;BMP280;53291;51.680;8.344;2022-10-31T08:47:48;101242.81;;;17.69
66473;BMP280;53291;51.680;8.344;2022-10-31T08:50:14;101243.78;;;17.68
66473;BMP280;53291;51.680;8.344;2022-10-31T08:52:39;101241.84;;;17.62
66473;BMP280;53291;51.680;8.344;2022-10-31T08:55:05;101241.50;;;17.81
66473;BMP280;53291;51.680;8.344;2022-10-31T08:57:30;101241.84;;;17.86
66473;BMP280;53291;51.680;8.344;2022-10-31T08:59:55;101233.94;;;17.79
66473;BMP280;53291;51.680;8.344;2022-10-31T09:02:21;101238.75;;;17.90
66473;BMP280;53291;51.680;8.344;2022-10-31T09:04:46;101233.72;;;18.05
66473;BMP280;53291;51.680;8.344;2022-10-31T09:07:11;101227.25;;;18.01
66473;BMP280;53291;51.680;8.344;2022-10-31T09:09:37;101228.72;;;18.43
66473;BMP280;53291;51.680;8.344;2022-10-31T09:12:02;101229.75;;;18.64
66473;BMP280;53291;51.680;8.344;2022-10-31T09:14:28;101231.72;;;18.62
66473;BMP280;53291;51.680;8.344;2022-10-31T09:16:53;101222.09;;;18.71
66473;BMP280;53291;51.680;8.344;2022-10-31T09:19:18;101225.16;;;18.74
66473;BMP280;53291;51.680;8.344;2022-10-31T09:21:43;101216.56;;;19.05
66473;BMP280;53291;51.680;8.344;2022-10-31T09:24:09;101222.19;;;18.85
66473;BMP280;53291;51.680;8.344;2022-10-31T09:26:34;101221.47;;;19.14
66473;BMP280;53291;51.680;8.344;2022-10-31T09:29:00;101222.06;;;19.24
66473;BMP280;53291;51.680;8.344;2022-10-31T09:31:27;101222.22;;;19.31
66473;BMP280;53291;51.680;8.344;2022-10-31T09:33:53;101225.81;;;19.45
66473;BMP280;53291;51.680;8.344;2022-10-31T09:36:19;101229.16;;;19.82
66473;BMP280;53291;51.680;8.344;2022-10-31T09:38:44;101228.66;;;20.02
66473;BMP280;53291;51.680;8.344;2022-10-31T09:44:00;101224.59;;;20.14
66473;BMP280;53291;51.680;8.344;2022-10-31T09:52:02;101228.06;;;20.93
66473;BMP280;53291;51.680;8.344;2022-10-31T09:54:37;101220.59;;;21.11
66473;BMP280;53291;51.680;8.344;2022-10-31T09:57:05;101214.97;;;21.63
66473;BMP280;53291;51.680;8.344;2022-10-31T09:59:37;101218.19;;;22.06
66473;BMP280;53291;51.680;8.344;2022-10-31T10:05:04;101219.88;;;22.39
66473;BMP280;53291;51.680;8.344;2022-10-31T10:10:17;101205.66;;;22.35
66473;BMP280;53291;51.680;8.344;2022-10-31T10:18:09;101200.44;;;22.42
66473;BMP280;53291;51.680;8.344;2022-10-31T10:26:38;101185.84;;;22.61
66473;BMP280;53291;51.680;8.344;2022-10-31T10:29:28;101182.41;;;22.54
66473;BMP280;53291;51.680;8.344;2022-10-31T10:31:57;101175.88;;;22.04
66473;BMP280;53291;51.680;8.344;2022-10-31T10:34:49;101166.47;;;22.09
66473;BMP280;53291;51.680;8.344;2022-10-31T10:39:50;101167.25;;;22.03
66473;BMP280;53291;51.680;8.344;2022-10-31T10:42:18;101167.00;;;21.98
66473;BMP280;53291;51.680;8.344;2022-10-31T10:45:21;101169.84;;;22.03
66473;BMP280;53291;51.680;8.344;2022-10-31T10:48:14;101168.28;;;22.09
66473;BMP280;53291;51.680;8.344;2022-10-31T10:50:47;101164.81;;;21.89
66473;BMP280;53291;51.680;8.344;2022-10-31T10:53:41;101163.50;;;21.71
66473;BMP280;53291;51.680;8.344;2022-10-31T10:57:04;101165.06;;;21.25
66473;BMP280;53291;51.680;8.344;2022-10-31T10:59:33;101151.75;;;20.86
66473;BMP280;53291;51.680;8.344;2022-10-31T11:01:59;101153.16;;;20.88
66473;BMP280;53291;51.680;8.344;2022-10-31T11:04:29;101148.25;;;21.00
66473;BMP280;53291;51.680;8.344;2022-10-31T11:07:04;101143.91;;;21.07
66473;BMP280;53291;51.680;8.344;2022-10-31T11:09:30;101134.78;;;21.17
66473;BMP280;53291;51.680;8.344;2022-10-31T11:11:56;101127.69;;;21.05
66473;BMP280;53291;51.680;8.344;2022-10-31T11:14:23;101123.41;;;21.25
66473;BMP280;53291;51.680;8.344;2022-10-31T11:16:53;101119.88;;;21.39
66473;BMP280;53291;51.680;8.344;2022-10-31T11:19:28;101121.94;;;21.50
66473;BMP280;53291;51.680;8.344;2022-10-31T11:21:53;101119.44;;;21.76
66473;BMP280;53291;51.680;8.344;2022-10-31T11:24:24;101115.34;;;22.02
66473;BMP280;53291;51.680;8.344;2022-10-31T11:26:51;101108.50;;;22.01
66473;BMP280;53291;51.680;8.344;2022-10-31T11:29:27;101104.34;;;22.13
66473;BMP280;53291;51.680;8.344;2022-10-31T11:31:55;101099.88;;;22.07
66473;BMP280;53291;51.680;8.344;2022-10-31T11:34:30;101095.69;;;22.19
66473;BMP280;53291;51.680;8.344;2022-10-31T11:37:21;101083.91;;;22.56
66473;BMP280;53291;51.680;8.344;2022-10-31T11:39:59;101080.44;;;22.68
66473;BMP280;53291;51.680;8.344;2022-10-31T11:42:35;101078.34;;;23.10
66473;BMP280;53291;51.680;8.344;2022-10-31T11:45:02;101081.06;;;23.41
66473;BMP280;53291;51.680;8.344;2022-10-31T11:47:31;101068.00;;;23.34
66473;BMP280;53291;51.680;8.344;2022-10-31T11:50:02;101061.84;;;23.67
66473;BMP280;53291;51.680;8.344;2022-10-31T11:52:33;101070.16;;;23.82
66473;BMP280;53291;51.680;8.344;2022-10-31T11:55:25;101061.53;;;23.50
66473;BMP280;53291;51.680;8.344;2022-10-31T11:57:55;101053.81;;;23.30
66473;BMP280;53291;51.680;8.344;2022-10-31T12:00:27;101053.00;;;23.23
66473;BMP280;53291;51.680;8.344;2022-10-31T12:05:50;101042.91;;;22.82
66473;BMP280;53291;51.680;8.344;2022-10-31T12:08:16;101031.41;;;22.90
66473;BMP280;53291;51.680;8.344;2022-10-31T12:11:03;101032.00;;;22.99
66473;BMP280;53291;51.680;8.344;2022-10-31T12:13:34;101024.38;;;22.90
66473;BMP280;53291;51.680;8.344;2022-10-31T12:18:52;101011.66;;;23.14
66473;BMP280;53291;51.680;8.344;2022-10-31T12:21:21;101011.47;;;23.09
66473;BMP280;53291;51.680;8.344;2022-10-31T12:32:40;101003.97;;;23.32
66473;BMP280;53291;51.680;8.344;2022-10-31T12:45:53;100977.84;;;23.32
66473;BMP280;53291;51.680;8.344;2022-10-31T12:51:01;100967.06;;;23.09
66473;BMP280;53291;51.680;8.344;2022-10-31T12:53:39;100959.91;;;23.04
66473;BMP280;53291;51.680;8.344;2022-10-31T12:58:47;100972.47;;;23.20
66473;BMP280;53291;51.680;8.344;2022-10-31T13:01:31;100960.13;;;23.03
66473;BMP280;53291;51.680;8.344;2022-10-31T13:07:00;100949.59;;;22.71
66473;BMP280;53291;51.680;8.344;2022-10-31T13:09:36;100939.56;;;22.68
66473;BMP280;53291;51.680;8.344;2022-10-31T13:12:08;100946.19;;;22.71
66473;BMP280;53291;51.680;8.344;2022-10-31T13:14:39;100937.94;;;22.80
66473;BMP280;53291;51.680;8.344;2022-10-31T13:17:06;100931.50;;;22.83
66473;BMP280;53291;51.680;8.344;2022-10-31T13:19:36;100927.88;;;22.84
66473;BMP280;53291;51.680;8.344;2022-10-31T13:22:21;100916.56;;;22.90
66473;BMP280;53291;51.680;8.344;2022-10-31T13:25:11;100911.31;;;23.03
66473;BMP280;53291;51.680;8.344;2022-10-31T13:27:48;100913.34;;;22.95
66473;BMP280;53291;51.680;8.344;2022-10-31T13:30:23;100915.38;;;22.86
66473;BMP280;53291;51.680;8.344;2022-10-31T13:33:04;100910.84;;;22.81
66473;BMP280;53291;51.680;8.344;2022-10-31T13:35:43;100911.66;;;22.69
66473;BMP280;53291;51.680;8.344;2022-10-31T13:38:22;100906.44;;;22.69
66473;BMP280;53291;51.680;8.344;2022-10-31T13:41:02;100904.22;;;22.72
66473;BMP280;53291;51.680;8.344;2022-10-31T13:44:03;100896.47;;;22.59
66473;BMP280;53291;51.680;8.344;2022-10-31T13:46:38;100891.47;;;22.51
66473;BMP280;53291;51.680;8.344;2022-10-31T13:49:04;100878.66;;;22.43
66473;BMP280;53291;51.680;8.344;2022-10-31T13:51:33;100884.06;;;22.42
66473;BMP280;53291;51.680;8.344;2022-10-31T13:54:42;100875.44;;;22.41
66473;BMP280;53291;51.680;8.344;2022-10-31T13:57:19;100874.03;;;22.38
66473;BMP280;53291;51.680;8.344;2022-10-31T13:59:51;100863.41;;;22.40
66473;BMP280;53291;51.680;8.344;2022-10-31T14:02:23;100858.41;;;22.38
66473;BMP280;53291;51.680;8.344;2022-10-31T14:04:54;100851.84;;;22.23
66473;BMP280;53291;51.680;8.344;2022-10-31T14:07:22;100859.25;;;22.26
66473;BMP280;53291;51.680;8.344;2022-10-31T14:09:57;100856.22;;;22.29
66473;BMP280;53291;51.680;8.344;2022-10-31T14:14:54;100850.69;;;22.06
66473;BMP280;53291;51.680;8.344;2022-10-31T14:17:25;100854.31;;;22.05
66473;BMP280;53291;51.680;8.344;2022-10-31T14:22:38;100842.06;;;21.99
66473;BMP280;53291;51.680;8.344;2022-10-31T14:25:41;100835.69;;;21.81
66473;BMP280;53291;51.680;8.344;2022-10-31T14:34:53;100835.69;;;21.55
66473;BMP280;53291;51.680;8.344;2022-10-31T14:47:58;100817.88;;;21.26
66473;BMP280;53291;51.680;8.344;2022-10-31T15:00:56;100783.00;;;21.01
66473;BMP280;53291;51.680;8.344;2022-10-31T15:07:10;100772.97;;;20.91
66473;BMP280;53291;51.680;8.344;2022-10-31T15:16:08;100768.94;;;20.82
66473;BMP280;53291;51.680;8.344;2022-10-31T15:19:37;100765.13;;;20.65
66473;BMP280;53291;51.680;8.344;2022-10-31T15:22:29;100759.88;;;20.58
66473;BMP280;53291;51.680;8.344;2022-10-31T15:28:34;100754.06;;;20.43
66473;BMP280;53291;51.680;8.344;2022-10-31T15:31:34;100753.06;;;20.44
66473;BMP280;53291;51.680;8.344;2022-10-31T15:34:27;100746.25;;;20.43
66473;BMP280;53291;51.680;8.344;2022-10-31T15:37:17;100747.59;;;20.26
66473;BMP280;53291;51.680;8.344;2022-10-31T15:43:37;100737.16;;;20.19
66473;BMP280;53291;51.680;8.344;2022-10-31T15:46:01;100734.28;;;20.08
66473;BMP280;53291;51.680;8.344;2022-10-31T15:52:02;100738.63;;;19.94
66473;BMP280;53291;51.680;8.344;2022-10-31T15:58:23;100728.94;;;19.75
66473;BMP280;53291;51.680;8.344;2022-10-31T16:07:49;100734.09;;;19.47
66473;BMP280;53291;51.680;8.344;2022-10-31T16:10:52;100741.50;;;19.50
66473;BMP280;53291;51.680;8.344;2022-10-31T16:13:54;100750.88;;;19.45
66473;BMP280;53291;51.680;8.344;2022-10-31T16:17:05;100749.00;;;19.39
66473;BMP280;53291;51.680;8.344;2022-10-31T16:19:48;100754.56;;;19.35
66473;BMP280;53291;51.680;8.344;2022-10-31T16:22:20;100749.34;;;19.29
66473;BMP280;53291;51.680;8.344;2022-10-31T16:24:49;100759.47;;;19.24
66473;BMP280;53291;51.680;8.344;2022-10-31T16:27:24;100750.44;;;19.20
66473;BMP280;53291;51.680;8.344;2022-10-31T16:29:54;100756.81;;;19.17
66473;BMP280;53291;51.680;8.344;2022-10-31T16:32:35;100760.38;;;19.16
66473;BMP280;53291;51.680;8.344;2022-10-31T16:35:24;100749.56;;;19.13
66473;BMP280;53291;51.680;8.344;2022-10-31T16:37:50;100745.53;;;19.10
66473;BMP280;53291;51.680;8.344;2022-10-31T16:40:16;100752.34;;;19.11
66473;BMP280;53291;51.680;8.344;2022-10-31T16:42:42;100742.13;;;19.03
66473;BMP280;53291;51.680;8.344;2022-10-31T16:45:14;100728.03;;;19.12
66473;BMP280;53291;51.680;8.344;2022-10-31T16:47:41;100732.38;;;19.05